Date,TemperatureHighF,TemperatureAvgF,TemperatureLowF,DewpointHighF,DewpointAvgF,DewpointLowF,HumidityHigh,HumidityAvg,HumidityLow,PressureMaxIn,PressureMinIn,WindSpeedMaxMPH,WindSpeedAvgMPH,GustSpeedMaxMPH,PrecipitationSumIn
2013-1-11,53.1,50.5,42.4,52.5,47.7,41.9,99,90,82,29.88,29.66,24,12,24,0.11
2013-1-12,54.0,43.8,29.8,47.2,34.0,20.7,82,68,51,29.98,29.73,18,11,18,0.00
2013-1-13,29.7,23.4,13.8,26.1,15.1,0.2,87,71,54,30.23,29.88,0,0,0,0.00
2013-1-14,26.2,17.7,11.5,7.0,1.9,-1.2,62,50,30,30.42,30.24,0,0,0,0.00
2013-1-15,32.5,24.6,14.7,10.9,6.3,1.7,63,47,27,30.42,30.11,7,2,7,0.02
2013-1-16,36.7,28.4,19.8,23.3,15.1,6.4,71,58,41,30.11,29.81,27,10,27,0.00
2013-1-17,33.1,25.1,22.6,25.7,5.2,-7.7,74,44,21,30.38,30.04,17,7,17,0.00
2013-1-18,22.6,22.6,22.6,6.0,6.0,6.0,48,48,48,30.38,30.38,4,4,5,0.00
2013-1-19,22.6,22.6,22.6,6.0,6.0,6.0,48,48,48,30.38,30.38,4,4,5,0.00
2013-1-20,22.6,22.6,22.6,6.0,6.0,6.0,48,48,48,30.38,30.38,4,4,5,0.00
2013-1-21,22.6,22.6,22.6,6.0,6.0,6.0,48,48,48,30.38,30.38,4,4,5,0.00
2013-1-22,22.6,22.6,22.6,6.0,6.0,6.0,48,48,48,30.38,30.38,4,4,5,0.00
2013-1-23,22.6,22.6,22.6,6.0,6.0,6.0,48,48,48,30.38,30.38,4,4,5,0.00
2013-1-24,22.6,22.6,22.6,6.0,6.0,6.0,48,48,48,30.38,30.38,4,4,5,0.00
2013-1-25,22.6,22.6,22.6,6.0,6.0,6.0,48,48,48,30.38,30.38,4,4,5,0.00
2013-1-26,22.6,22.6,22.6,6.0,6.0,6.0,48,48,48,30.38,30.38,4,4,5,0.00
2013-1-27,36.9,24.5,22.6,35.0,10.1,6.0,93,55,48,30.38,29.91,21,5,21,0.33
2013-1-28,49.1,43.2,36.9,48.8,40.8,35.0,99,91,73,29.97,29.81,22,9,22,0.07
2013-1-29,63.9,56.3,38.8,59.1,53.9,38.6,99,92,81,29.83,29.42,26,9,26,0.91
2013-1-30,42.3,32.9,19.9,41.6,29.5,9.6,99,87,62,29.62,29.22,30,10,30,0.24
2013-1-31,20.1,13.3,4.6,11.8,-0.9,-9.8,70,52,42,30.13,29.62,33,16,33,0.00
2013-2-1,14.0,7.2,-0.2,6.4,-8.1,-16.0,71,49,37,30.32,30.13,24,12,24,0.00
2013-2-2,23.0,15.4,8.4,18.5,5.7,-7.0,84,66,49,30.17,30.00,20,8,20,0.00
2013-2-3,22.3,17.0,8.6,7.7,3.0,-8.6,69,54,44,30.03,29.94,23,9,23,0.00
2013-2-4,21.2,21.2,21.2,5.1,5.1,5.1,49,49,49,30.02,30.02,11,11,17,0.00
2013-2-5,21.2,21.2,21.2,5.1,5.1,5.1,49,49,49,30.02,30.02,11,11,17,0.00
2013-2-6,21.2,21.2,21.2,5.1,5.1,5.1,49,49,49,30.02,30.02,11,11,17,0.00
2013-2-7,21.2,21.2,21.2,5.1,5.1,5.1,49,49,49,30.02,30.02,11,11,17,0.00
2013-2-8,21.2,21.2,21.2,5.1,5.1,5.1,49,49,49,30.02,30.02,11,11,17,0.00
2013-2-9,21.2,21.2,21.2,5.1,5.1,5.1,49,49,49,30.02,30.02,11,11,17,0.00
2013-2-10,21.2,21.2,21.2,5.1,5.1,5.1,49,49,49,30.02,30.02,11,11,17,0.00
2013-2-11,21.2,21.2,21.2,5.1,5.1,5.1,49,49,49,30.02,30.02,11,11,17,0.00
2013-2-12,21.2,21.2,21.2,5.1,5.1,5.1,49,49,49,30.02,30.02,11,11,17,0.00
2013-2-13,21.2,21.2,21.2,5.1,5.1,5.1,49,49,49,30.02,30.02,11,11,17,0.00